Time;durP1;ratioP1;P1;durP2;ratioP2;P2;SDS_P1;SDS_P2;PMS_P1;PMS_P2;Temp;Humidity;BMP_temperature;BMP_pressure;BME280_temperature;BME280_humidity;BME280_pressure;Samples;Min_cycle;Max_cycle;Signal;HPM_P1;HPM_P2
2022/06/26 00:01:43;;;;;;;30.20;19.80;;;;;;;16.64;100.00;101159.78;5031399;28;20087;-77
2022/06/26 00:04:09;;;;;;;28.48;17.70;;;;;;;16.56;100.00;101159.78;5029665;28;20079;-77
2022/06/26 00:06:34;;;;;;;30.10;18.35;;;;;;;16.48;100.00;101167.81;5016018;28;20030;-76
2022/06/26 00:08:59;;;;;;;28.55;17.98;;;;;;;16.42;100.00;101170.47;5030506;28;20045;-77
2022/06/26 00:11:25;;;;;;;25.17;17.23;;;;;;;16.38;100.00;101167.84;5031446;28;20079;-76
2022/06/26 00:13:50;;;;;;;29.05;17.17;;;;;;;16.38;100.00;101176.69;5029723;28;20025;-76
2022/06/26 00:16:16;;;;;;;29.10;17.67;;;;;;;16.46;100.00;101184.63;5029692;28;20385;-76
2022/06/26 00:18:42;;;;;;;25.60;17.55;;;;;;;16.38;100.00;101175.81;5032091;28;20075;-77
2022/06/26 00:21:08;;;;;;;29.98;17.80;;;;;;;16.29;100.00;101184.66;5033433;28;20018;-75
2022/06/26 00:23:34;;;;;;;26.17;16.73;;;;;;;16.30;100.00;101189.09;5033623;28;20091;-76
2022/06/26 00:26:00;;;;;;;27.58;17.67;;;;;;;16.24;100.00;101197.09;5034778;28;20420;-75
2022/06/26 00:28:26;;;;;;;25.67;16.33;;;;;;;16.28;100.00;101185.56;5033370;28;20453;-76
2022/06/26 00:30:51;;;;;;;31.35;16.95;;;;;;;16.27;100.00;101191.75;5035217;28;20060;-77
2022/06/26 00:33:16;;;;;;;21.65;15.30;;;;;;;16.13;100.00;101190.00;5031741;28;20033;-77
2022/06/26 00:35:42;;;;;;;21.42;14.68;;;;;;;16.11;100.00;101191.75;5030915;28;20052;-76
2022/06/26 00:38:07;;;;;;;24.75;14.85;;;;;;;16.05;100.00;101193.53;5034241;28;20021;-76
2022/06/26 00:40:32;;;;;;;24.30;14.88;;;;;;;16.08;100.00;101191.75;5035342;28;20029;-76
2022/06/26 00:42:58;;;;;;;22.10;14.98;;;;;;;16.10;100.00;101197.97;5033895;28;20071;-75
2022/06/26 00:45:23;;;;;;;27.27;16.05;;;;;;;16.09;100.00;101187.31;5035181;28;20021;-77
2022/06/26 00:47:49;;;;;;;27.05;16.38;;;;;;;16.11;100.00;101189.09;5033959;28;20473;-76
2022/06/26 00:50:14;;;;;;;23.30;15.75;;;;;;;16.04;100.00;101184.69;5031128;28;20037;-77
2022/06/26 00:52:40;;;;;;;23.10;14.15;;;;;;;16.09;100.00;101193.53;5034747;28;20048;-75
2022/06/26 00:55:07;;;;;;;27.08;14.82;;;;;;;16.09;100.00;101192.63;5033506;28;20464;-75
2022/06/26 00:57:34;;;;;;;26.35;16.83;;;;;;;16.06;100.00;101193.56;5034345;28;20465;-77
2022/06/26 01:00:00;;;;;;;27.63;17.58;;;;;;;16.04;100.00;101189.13;5033929;28;20447;-75
2022/06/26 01:02:25;;;;;;;27.85;17.58;;;;;;;15.99;100.00;101194.41;5034210;28;20061;-75
2022/06/26 01:04:50;;;;;;;24.95;17.35;;;;;;;16.02;100.00;101189.13;5033588;28;20374;-76
2022/06/26 01:07:16;;;;;;;29.45;18.38;;;;;;;15.96;100.00;101187.34;5033505;28;20112;-77
2022/06/26 01:09:42;;;;;;;29.23;18.95;;;;;;;15.91;100.00;101191.78;5034761;28;20428;-74
2022/06/26 01:12:08;;;;;;;30.13;18.80;;;;;;;15.95;100.00;101200.59;5034443;28;20034;-76
2022/06/26 01:14:33;;;;;;;27.00;19.55;;;;;;;16.02;100.00;101195.31;5031497;28;20404;-75
2022/06/26 01:16:59;;;;;;;35.00;18.58;;;;;;;15.91;100.00;101189.13;5032567;28;20029;-75
2022/06/26 01:19:26;;;;;;;33.20;19.27;;;;;;;15.93;100.00;101197.97;5033466;28;20037;-76
2022/06/26 01:21:52;;;;;;;30.90;18.77;;;;;;;15.91;100.00;101201.50;5033119;28;20449;-74
2022/06/26 01:24:17;;;;;;;27.65;19.80;;;;;;;15.87;100.00;101197.06;5032641;28;20025;-76
2022/06/26 01:26:43;;;;;;;32.88;20.58;;;;;;;15.81;100.00;101204.13;5033039;28;20033;-77
2022/06/26 01:29:09;;;;;;;33.20;20.48;;;;;;;15.82;100.00;101199.75;5032288;28;20128;-76
2022/06/26 01:31:34;;;;;;;33.00;20.60;;;;;;;15.82;100.00;101205.91;5033313;28;20033;-74
2022/06/26 01:34:05;;;;;;;33.58;21.42;;;;;;;15.82;100.00;101195.31;5032744;28;20385;-76
2022/06/26 01:36:31;;;;;;;31.73;20.83;;;;;;;15.80;100.00;101202.41;5033480;28;20029;-75
2022/06/26 01:38:56;;;;;;;37.08;21.45;;;;;;;15.84;100.00;101209.47;5033718;28;20431;-77
2022/06/26 01:41:22;;;;;;;38.35;23.05;;;;;;;15.85;100.00;101202.38;5033107;28;20431;-75
2022/06/26 01:43:47;;;;;;;46.83;24.42;;;;;;;15.91;100.00;101207.72;5032155;28;20450;-76
2022/06/26 01:46:13;;;;;;;39.38;22.77;;;;;;;15.93;100.00;101211.22;5032339;28;20018;-76
2022/06/26 01:48:40;;;;;;;38.33;23.75;;;;;;;15.92;100.00;101203.28;5031181;28;20116;-76
2022/06/26 01:51:06;;;;;;;35.42;22.30;;;;;;;15.92;100.00;101205.94;5032590;28;20033;-75
2022/06/26 01:53:32;;;;;;;32.92;21.95;;;;;;;15.89;100.00;101204.16;5032676;28;20060;-76
2022/06/26 01:55:58;;;;;;;39.25;21.33;;;;;;;15.81;100.00;101201.50;5034180;28;20473;-75
2022/06/26 01:58:24;;;;;;;32.47;20.17;;;;;;;15.70;100.00;101203.22;5031785;28;20435;-76
2022/06/26 02:00:53;;;;;;;35.95;20.52;;;;;;;15.69;100.00;101209.41;5032889;28;20030;-77
2022/06/26 02:03:20;;;;;;;32.88;20.60;;;;;;;15.60;100.00;101206.72;5032570;28;20036;-76
2022/06/26 02:05:46;;;;;;;32.80;19.27;;;;;;;15.67;100.00;101200.56;5032008;28;20018;-75
2022/06/26 02:08:11;;;;;;;32.92;20.13;;;;;;;15.70;100.00;101203.22;5031507;28;20030;-76
2022/06/26 02:13:36;;;;;;;29.70;18.35;;;;;;;15.55;100.00;101200.56;5032064;28;20044;-77
2022/06/26 02:16:10;;;;;;;31.52;19.75;;;;;;;15.54;100.00;101198.78;5032088;28;20041;-76
2022/06/26 02:18:36;;;;;;;34.92;18.77;;;;;;;15.46;100.00;101193.47;5031830;28;20029;-77
2022/06/26 02:21:04;;;;;;;34.83;19.23;;;;;;;15.51;100.00;101197.88;5033319;28;20029;-77
2022/06/26 02:23:30;;;;;;;31.65;18.70;;;;;;;15.52;100.00;101202.31;5032710;28;20029;-76
2022/06/26 02:25:55;;;;;;;36.28;19.42;;;;;;;15.50;100.00;101193.50;5033284;28;20361;-76
2022/06/26 02:28:20;;;;;;;32.50;19.30;;;;;;;15.51;100.00;101200.53;5032521;28;20124;-76
2022/06/26 02:30:46;;;;;;;30.17;17.55;;;;;;;15.51;100.00;101197.88;5033338;28;20445;-77
2022/06/26 02:33:11;;;;;;;31.83;17.90;;;;;;;15.51;100.00;101192.56;5032811;28;20107;-77
2022/06/26 02:35:37;;;;;;;34.33;19.17;;;;;;;15.50;100.00;101190.84;5031800;28;20033;-77
2022/06/26 02:38:02;;;;;;;34.50;19.02;;;;;;;15.53;100.00;101195.22;5028972;28;20033;-74
2022/06/26 02:40:30;;;;;;;31.55;19.20;;;;;;;15.49;100.00;101197.00;5032263;28;20385;-75
2022/06/26 02:42:56;;;;;;;28.98;17.85;;;;;;;15.50;100.00;101192.56;5032947;28;20473;-73
2022/06/26 02:45:22;;;;;;;31.65;17.52;;;;;;;15.47;100.00;101198.75;5030933;28;20040;-77
2022/06/26 02:47:48;;;;;;;32.45;17.15;;;;;;;15.45;100.00;101195.25;5031418;28;20033;-75
2022/06/26 02:50:14;;;;;;;32.75;18.15;;;;;;;15.44;100.00;101204.06;5032839;28;20057;-76
2022/06/26 02:52:39;;;;;;;33.65;17.05;;;;;;;15.48;100.00;101197.00;5030673;28;20049;-75
2022/06/26 02:55:05;;;;;;;30.58;17.27;;;;;;;15.49;100.00;101202.31;5032358;28;20037;-75
2022/06/26 02:57:31;;;;;;;28.77;15.27;;;;;;;15.44;100.00;101209.38;5030215;28;20029;-76
2022/06/26 02:59:56;;;;;;;28.70;16.17;;;;;;;15.40;100.00;101204.94;5029666;28;20079;-74
2022/06/26 03:02:23;;;;;;;29.60;14.35;;;;;;;15.40;100.00;101201.41;5032915;28;20069;-76
2022/06/26 03:04:48;;;;;;;24.27;15.05;;;;;;;15.37;100.00;101202.28;5032422;28;20044;-76
2022/06/26 03:07:13;;;;;;;29.52;15.70;;;;;;;15.37;100.00;101207.59;5030352;28;20043;-75
2022/06/26 03:09:39;;;;;;;22.23;15.40;;;;;;;15.35;100.00;101214.66;5030806;28;20026;-75
2022/06/26 03:12:05;;;;;;;24.70;13.95;;;;;;;15.34;100.00;101226.13;5031860;28;20025;-75
2022/06/26 03:14:30;;;;;;;18.92;14.02;;;;;;;15.26;100.00;101225.22;5030112;28;20033;-76
2022/06/26 03:16:56;;;;;;;27.27;15.05;;;;;;;15.20;100.00;101211.97;5032853;28;20109;-76
2022/06/26 03:19:22;;;;;;;28.55;15.23;;;;;;;15.22;100.00;101219.03;5032201;28;20029;-75
2022/06/26 03:21:47;;;;;;;33.80;14.73;;;;;;;15.22;100.00;101228.75;5032105;28;20103;-76
2022/06/26 03:24:12;;;;;;;22.33;14.40;;;;;;;15.14;100.00;101229.59;5032324;28;20040;-76
2022/06/26 03:26:38;;;;;;;25.10;14.23;;;;;;;15.07;100.00;101227.81;5030901;28;20026;-75
2022/06/26 03:29:06;;;;;;;31.08;14.65;;;;;;;15.05;100.00;101232.22;5031482;28;20036;-75
2022/06/26 03:31:32;;;;;;;20.20;13.55;;;;;;;15.07;100.00;101234.88;5030682;28;20025;-76
2022/06/26 03:33:57;;;;;;;23.50;13.80;;;;;;;15.05;100.00;101223.38;5031887;28;20523;-75
2022/06/26 03:36:24;;;;;;;29.13;15.77;;;;;;;15.13;100.00;101230.47;5031505;28;20049;-76
2022/06/26 03:38:50;;;;;;;24.48;13.50;;;;;;;15.05;100.00;101232.22;5030605;28;20022;-76
2022/06/26 03:41:16;;;;;;;30.02;14.20;;;;;;;14.99;100.00;101241.03;5031124;28;20112;-75
2022/06/26 03:43:41;;;;;;;21.52;13.95;;;;;;;15.01;100.00;101238.38;5029369;28;20113;-75
2022/06/26 03:46:06;;;;;;;21.50;13.63;;;;;;;15.01;100.00;101238.38;5029455;28;20033;-75
2022/06/26 03:48:32;;;;;;;26.13;14.43;;;;;;;15.04;100.00;101241.03;5029194;28;20025;-75
2022/06/26 03:50:58;;;;;;;23.60;14.32;;;;;;;15.06;100.00;101238.41;5031733;28;20032;-76
2022/06/26 03:53:24;;;;;;;29.08;14.68;;;;;;;15.09;100.00;101252.56;5030030;28;20456;-75
2022/06/26 03:55:50;;;;;;;25.65;14.07;;;;;;;15.08;100.00;101242.81;5033637;28;20033;-75
2022/06/26 03:58:16;;;;;;;25.70;13.80;;;;;;;15.11;100.00;101242.84;5035817;28;20026;-76
2022/06/26 04:00:41;;;;;;;29.33;13.27;;;;;;;15.15;100.00;101243.72;5033845;28;20036;-75
2022/06/26 04:03:07;;;;;;;28.40;13.48;;;;;;;15.16;100.00;101250.81;5033587;28;20025;-77
2022/06/26 04:05:34;;;;;;;31.45;14.13;;;;;;;15.11;100.00;101236.66;5034894;28;20075;-75
2022/06/26 04:08:00;;;;;;;22.90;13.07;;;;;;;15.14;100.00;101253.47;5030318;28;20116;-76
2022/06/26 04:10:26;;;;;;;26.23;13.82;;;;;;;15.20;100.00;101257.91;5033894;28;20112;-75
2022/06/26 04:12:51;;;;;;;25.65;13.15;;;;;;;15.17;100.00;101256.13;5035746;28;20068;-76
2022/06/26 04:15:17;;;;;;;27.10;13.43;;;;;;;15.24;100.00;101253.50;5035384;28;20029;-76
2022/06/26 04:17:43;;;;;;;25.88;13.55;;;;;;;15.24;100.00;101249.06;5035980;28;20031;-76
2022/06/26 04:20:09;;;;;;;25.80;13.88;;;;;;;15.25;100.00;101252.63;5034608;28;20095;-76
2022/06/26 04:22:34;;;;;;;24.42;12.63;;;;;;;15.29;100.00;101254.41;5036062;28;20073;-75
2022/06/26 04:25:00;;;;;;;25.48;12.88;;;;;;;15.27;100.00;101264.13;5031767;28;20026;-75
2022/06/26 04:27:25;;;;;;;30.80;12.93;;;;;;;15.28;100.00;101271.19;5035398;28;20025;-76
2022/06/26 04:29:51;;;;;;;25.35;12.50;;;;;;;15.29;100.00;101267.69;5034002;28;20358;-76
2022/06/26 04:32:16;;;;;;;31.95;13.07;;;;;;;15.34;100.00;101272.09;5030798;28;20029;-76
2022/06/26 04:34:42;;;;;;;24.80;11.48;;;;;;;15.30;100.00;101274.72;5032333;28;20116;-75
2022/06/26 04:37:07;;;;;;;23.65;11.43;;;;;;;15.37;100.00;101280.94;5034986;28;20033;-75
2022/06/26 04:39:32;;;;;;;20.33;10.98;;;;;;;15.33;100.00;101285.38;5032411;28;20479;-77
2022/06/26 04:41:58;;;;;;;27.13;10.80;;;;;;;15.37;100.00;101296.84;5035018;28;20079;-76
2022/06/26 04:44:23;;;;;;;23.98;10.98;;;;;;;15.35;100.00;101299.50;5033490;28;20070;-77
2022/06/26 04:46:48;;;;;;;22.23;11.32;;;;;;;15.32;100.00;101307.44;5035722;28;20083;-76
2022/06/26 04:49:14;;;;;;;27.50;11.75;;;;;;;15.32;100.00;101302.16;5034292;28;20029;-76
2022/06/26 04:51:39;;;;;;;22.13;11.07;;;;;;;15.37;100.00;101303.06;5035639;28;20116;-76
2022/06/26 04:54:07;;;;;;;27.42;11.27;;;;;;;15.35;100.00;101302.16;5035189;28;20048;-76
2022/06/26 04:56:33;;;;;;;21.77;11.20;;;;;;;15.34;100.00;101316.28;5033400;28;20068;-74
2022/06/26 04:58:59;;;;;;;21.10;10.45;;;;;;;15.34;100.00;101318.94;5034137;28;20057;-75
2022/06/26 05:01:26;;;;;;;26.88;11.35;;;;;;;15.37;100.00;101329.56;5032890;28;20044;-76
2022/06/26 05:03:51;;;;;;;28.77;11.45;;;;;;;15.39;100.00;101333.09;5034182;28;20477;-76
2022/06/26 05:06:16;;;;;;;18.45;10.07;;;;;;;15.39;100.00;101334.88;5034382;28;20029;-77
2022/06/26 05:08:42;;;;;;;23.05;9.73;;;;;;;15.47;100.00;101323.41;5030849;28;20409;-77
2022/06/26 05:11:07;;;;;;;19.33;10.00;;;;;;;15.55;100.00;101330.53;5034647;28;20033;-76
2022/06/26 05:13:33;;;;;;;22.27;9.73;;;;;;;15.61;100.00;101326.13;5033194;28;20033;-77
2022/06/26 05:15:58;;;;;;;15.80;9.77;;;;;;;15.70;100.00;101327.91;5034176;28;20025;-76
2022/06/26 05:18:24;;;;;;;18.10;10.13;;;;;;;15.77;100.00;101329.69;5032670;28;20508;-77
2022/06/26 05:20:50;;;;;;;17.30;8.68;;;;;;;15.82;100.00;101332.41;5034061;28;20064;-78
2022/06/26 05:23:15;;;;;;;18.55;8.80;;;;;;;15.76;100.00;101327.94;5032266;28;20075;-75
2022/06/26 05:25:42;;;;;;;11.27;7.80;;;;;;;15.87;100.00;101324.47;5032331;28;20041;-76
2022/06/26 05:28:08;;;;;;;17.63;8.60;;;;;;;15.90;100.00;101321.81;5032909;28;20030;-76
2022/06/26 05:30:34;;;;;;;14.43;6.95;;;;;;;15.87;100.00;101316.50;5033181;28;20021;-76
2022/06/26 05:33:00;;;;;;;11.70;6.63;;;;;;;15.83;100.00;101332.41;5034563;28;20110;-77
2022/06/26 05:35:25;;;;;;;15.23;7.07;;;;;;;15.93;100.00;101329.78;5031929;28;20041;-77
2022/06/26 05:37:51;;;;;;;13.25;6.10;;;;;;;15.94;100.00;101332.44;5032345;28;20958;-76
2022/06/26 05:40:16;;;;;;;10.30;5.20;;;;;;;15.89;100.00;101339.50;5033161;28;20029;-76
2022/06/26 05:42:42;;;;;;;10.43;5.10;;;;;;;15.95;100.00;101333.31;5032612;28;20040;-76
2022/06/26 05:45:08;;;;;;;7.72;4.70;;;;;;;15.97;100.00;101336.88;5033300;28;20463;-77
2022/06/26 05:47:33;;;;;;;7.88;4.80;;;;;;;15.98;100.00;101338.66;5032114;28;20473;-76
2022/06/26 05:49:59;;;;;;;8.32;5.35;;;;;;;15.99;100.00;101340.41;5032767;28;20034;-75
2022/06/26 05:52:24;;;;;;;9.55;5.13;;;;;;;15.90;100.00;101348.34;5033053;28;20060;-76
2022/06/26 05:54:50;;;;;;;11.05;4.78;;;;;;;15.90;100.00;101343.94;5033242;28;20025;-77
2022/06/26 05:57:16;;;;;;;6.43;4.82;;;;;;;16.03;100.00;101358.09;5031766;28;20025;-77
2022/06/26 05:59:41;;;;;;;8.32;4.90;;;;;;;16.01;100.00;101359.88;5030280;28;20054;-76
2022/06/26 06:02:06;;;;;;;9.57;4.82;;;;;;;16.06;100.00;101366.09;5031709;28;20025;-77
2022/06/26 06:04:32;;;;;;;9.98;4.70;;;;;;;16.05;100.00;101366.97;5032826;28;20086;-76
2022/06/26 06:06:58;;;;;;;8.40;4.50;;;;;;;16.05;100.00;101368.72;5031221;28;20482;-77
2022/06/26 06:09:23;;;;;;;8.18;4.82;;;;;;;16.08;100.00;101374.06;5033212;28;20032;-76
2022/06/26 06:11:48;;;;;;;11.52;4.40;;;;;;;16.08;100.00;101371.41;5031019;28;20033;-77
2022/06/26 06:14:14;;;;;;;7.65;4.30;;;;;;;16.15;100.00;101379.38;5031468;28;20660;-75
2022/06/26 06:16:39;;;;;;;8.90;4.43;;;;;;;16.15;100.00;101374.06;5031787;28;20372;-76
2022/06/26 06:19:04;;;;;;;9.50;4.60;;;;;;;16.23;100.00;101378.53;5029646;28;20033;-77
2022/06/26 06:21:30;;;;;;;7.63;4.50;;;;;;;16.19;100.00;101374.97;5033222;28;20032;-76
2022/06/26 06:23:55;;;;;;;7.22;4.53;;;;;;;16.24;100.00;101383.84;5030812;28;20032;-77
2022/06/26 06:26:20;;;;;;;9.40;4.60;;;;;;;16.24;100.00;101386.50;5033468;28;20041;-77
2022/06/26 06:28:46;;;;;;;12.15;4.35;;;;;;;16.33;100.00;101390.91;5031878;28;20491;-76
2022/06/26 06:31:11;;;;;;;6.90;3.63;;;;;;;16.38;100.00;101397.13;5031787;28;20033;-76
2022/06/26 06:33:36;;;;;;;5.78;4.57;;;;;;;16.49;100.00;101400.69;5033239;28;20396;-77
2022/06/26 06:36:02;;;;;;;7.57;5.03;;;;;;;16.47;100.00;101418.41;5032116;28;20033;-77
2022/06/26 06:38:27;;;;;;;12.93;5.22;;;;;;;16.56;100.00;101430.78;5031892;28;20032;-75
2022/06/26 06:40:53;;;;;;;6.65;4.90;;;;;;;16.51;100.00;101419.28;5031790;28;20048;-76
2022/06/26 06:43:18;;;;;;;8.13;4.70;;;;;;;16.51;100.00;101441.41;5032144;28;20393;-75
2022/06/26 06:45:43;;;;;;;6.80;4.60;;;;;;;16.51;100.00;101451.16;5031902;28;20026;-77
2022/06/26 06:48:09;;;;;;;11.30;5.53;;;;;;;16.45;100.00;101457.34;5030410;28;20028;-76
2022/06/26 06:50:35;;;;;;;10.60;6.50;;;;;;;16.49;100.00;101447.63;5031415;28;20041;-75
2022/06/26 06:53:01;;;;;;;9.52;5.85;;;;;;;16.68;100.00;101448.53;5032418;28;20452;-77
2022/06/26 06:55:26;;;;;;;10.93;6.65;;;;;;;16.70;100.00;101470.69;5032633;28;20025;-77
2022/06/26 06:57:51;;;;;;;9.15;6.50;;;;;;;16.92;100.00;101462.75;5032581;28;20064;-75
2022/06/26 07:00:17;;;;;;;9.43;6.38;;;;;;;16.92;100.00;101452.13;5032882;28;20021;-77
2022/06/26 07:02:42;;;;;;;15.45;5.60;;;;;;;16.93;100.00;101460.09;5030038;28;20452;-74
2022/06/26 07:05:08;;;;;;;7.28;4.85;;;;;;;16.90;100.00;101464.50;5032356;28;20157;-76
2022/06/26 07:07:35;;;;;;;9.50;5.68;;;;;;;16.86;100.00;101472.47;5030561;28;20033;-76
2022/06/26 07:10:00;;;;;;;10.82;4.80;;;;;;;16.80;100.00;101467.13;5030147;28;20021;-75
2022/06/26 07:12:26;;;;;;;7.40;5.40;;;;;;;16.89;100.00;101478.66;5030688;28;20397;-74
2022/06/26 07:14:52;;;;;;;10.05;4.88;;;;;;;16.84;100.00;101471.56;5031965;28;20057;-76
2022/06/26 07:17:18;;;;;;;8.70;5.28;;;;;;;16.94;100.00;101469.84;5030513;28;20055;-76
2022/06/26 07:19:44;;;;;;;8.55;4.45;;;;;;;16.82;100.00;101462.72;5031903;28;20022;-77
2022/06/26 07:22:09;;;;;;;7.05;4.47;;;;;;;16.92;100.00;101466.28;5032044;28;20082;-76
2022/06/26 07:24:34;;;;;;;9.80;4.35;;;;;;;16.96;100.00;101465.41;5032054;28;20366;-74
2022/06/26 07:27:03;;;;;;;7.35;5.00;;;;;;;16.93;100.00;101476.06;5030344;28;20465;-75
2022/06/26 07:29:28;;;;;;;11.95;5.57;;;;;;;17.05;100.00;101477.84;5030132;28;20057;-75
2022/06/26 07:31:54;;;;;;;7.72;5.10;;;;;;;17.10;100.00;101476.03;5033591;28;20127;-75
2022/06/26 07:34:19;;;;;;;9.75;5.15;;;;;;;17.18;100.00;101482.22;5035625;28;20028;-73
2022/06/26 07:36:47;;;;;;;11.60;4.72;;;;;;;17.28;100.00;101484.88;5028185;28;20038;-75
2022/06/26 07:39:15;;;;;;;9.48;3.78;;;;;;;17.37;100.00;101476.91;5035468;28;20071;-74
2022/06/26 07:41:42;;;;;;;4.85;3.50;;;;;;;17.41;100.00;101477.78;5035246;28;20079;-75
2022/06/26 07:44:08;;;;;;;7.57;3.78;;;;;;;17.52;100.00;101478.66;5030458;28;20025;-74
2022/06/26 07:46:35;;;;;;;5.57;4.15;;;;;;;17.60;100.00;101481.31;5031567;28;20096;-75
2022/06/26 07:49:04;;;;;;;7.22;3.38;;;;;;;17.45;100.00;101475.13;5036414;28;20448;-75
2022/06/26 07:51:31;;;;;;;6.40;3.33;;;;;;;17.56;100.00;101477.75;5036276;28;20897;-75
2022/06/26 07:53:56;;;;;;;11.75;3.50;;;;;;;17.64;100.00;101483.06;5034766;28;20121;-73
2022/06/26 07:56:22;;;;;;;7.57;3.55;;;;;;;17.63;100.00;101483.94;5036360;28;20101;-71
2022/06/26 07:58:48;;;;;;;8.80;3.70;;;;;;;17.64;100.00;101491.06;5036391;28;20025;-71
2022/06/26 08:01:13;;;;;;;7.35;3.42;;;;;;;17.65;100.00;101484.84;5034352;28;20551;-75
2022/06/26 08:03:39;;;;;;;6.93;3.50;;;;;;;17.69;100.00;101490.16;5034730;28;20179;-77
2022/06/26 08:06:04;;;;;;;4.47;3.20;;;;;;;17.62;100.00;101487.50;5035270;28;20365;-74
2022/06/26 08:08:29;;;;;;;5.28;3.13;;;;;;;17.69;100.00;101489.28;5034790;28;20025;-75
2022/06/26 08:10:55;;;;;;;8.43;3.35;;;;;;;17.75;100.00;101491.91;5034399;28;20040;-75
2022/06/26 08:13:20;;;;;;;6.05;3.05;;;;;;;17.84;100.00;101494.53;5034719;28;20025;-76
2022/06/26 08:15:46;;;;;;;6.78;3.50;;;;;;;17.93;100.00;101498.09;5027950;28;20029;-75
2022/06/26 08:18:11;;;;;;;5.35;3.15;;;;;;;18.06;100.00;101493.63;5034653;28;20460;-74
2022/06/26 08:20:36;;;;;;;7.45;2.95;;;;;;;18.25;100.00;101497.09;5033215;28;20116;-75
2022/06/26 08:23:02;;;;;;;10.88;3.85;;;;;;;18.31;100.00;101489.94;5035010;28;20124;-76
2022/06/26 08:25:27;;;;;;;6.85;3.10;;;;;;;18.43;100.00;101485.44;5033308;28;20029;-75
2022/06/26 08:27:53;;;;;;;4.80;2.50;;;;;;;18.41;100.00;101496.13;5034626;28;20108;-74
2022/06/26 08:30:18;;;;;;;5.82;2.33;;;;;;;18.42;100.00;101489.91;5033354;28;20033;-75
2022/06/26 08:32:44;;;;;;;6.22;2.30;;;;;;;18.49;100.00;101488.97;5034374;28;20025;-75
2022/06/26 08:35:11;;;;;;;6.57;2.75;;;;;;;18.61;100.00;101498.66;5031411;28;20036;-75
2022/06/26 08:37:37;;;;;;;6.05;3.45;;;;;;;18.68;100.00;101494.19;5032753;28;20029;-74
2022/06/26 08:40:03;;;;;;;8.88;2.88;;;;;;;18.61;100.00;101503.09;5034109;28;20428;-75
2022/06/26 08:42:30;;;;;;;7.55;2.10;;;;;;;18.72;100.00;101501.25;5032774;28;20488;-74
2022/06/26 08:44:59;;;;;;;7.82;2.50;;;;;;;18.77;100.00;101509.22;5021587;28;20107;-74
2022/06/26 08:47:30;;;;;;;5.32;2.63;;;;;;;18.79;100.00;101510.97;5035604;28;20121;-74
2022/06/26 08:49:57;;;;;;;5.57;3.00;;;;;;;18.74;100.00;101510.13;5034503;28;20056;-75
2022/06/26 08:52:23;;;;;;;5.50;1.98;;;;;;;18.95;100.00;101508.22;5033788;28;20025;-74
2022/06/26 08:54:49;;;;;;;4.40;2.60;;;;;;;19.08;100.00;101509.03;5029467;28;20032;-75
2022/06/26 08:57:15;;;;;;;5.80;2.38;;;;;;;19.22;100.00;101507.09;5010178;28;20461;-73
2022/06/26 08:59:41;;;;;;;4.95;2.30;;;;;;;19.23;100.00;101510.69;5027652;28;20029;-74
2022/06/26 09:02:07;;;;;;;4.07;2.67;;;;;;;19.28;100.00;101507.06;5025354;28;20033;-74
2022/06/26 09:04:32;;;;;;;3.22;2.30;;;;;;;19.27;100.00;101507.09;5027591;28;20347;-75
2022/06/26 09:06:58;;;;;;;5.13;2.53;;;;;;;19.26;100.00;101508.88;5026987;28;20030;-77
2022/06/26 09:09:27;;;;;;;5.60;2.03;;;;;;;19.47;100.00;101506.91;5027076;28;20021;-74
2022/06/26 09:11:58;;;;;;;5.90;3.00;;;;;;;19.66;100.00;101505.81;5024524;28;20096;-76
2022/06/26 09:14:24;;;;;;;5.55;2.20;;;;;;;19.73;100.00;101509.28;5028035;28;20037;-76
2022/06/26 09:16:52;;;;;;;4.32;2.33;;;;;;;19.84;100.00;101498.53;5030116;28;20025;-74
2022/06/26 09:19:20;;;;;;;6.20;2.97;;;;;;;19.71;100.00;101513.78;5025536;28;20025;-73
2022/06/26 09:21:49;;;;;;;6.60;2.17;;;;;;;19.60;100.00;101521.00;5029310;28;20029;-75
2022/06/26 09:24:17;;;;;;;5.40;1.63;;;;;;;19.52;100.00;101511.28;5034490;28;20168;-77
2022/06/26 09:26:44;;;;;;;3.00;2.00;;;;;;;19.44;100.00;101518.50;5033465;28;20401;-75
2022/06/26 09:29:14;;;;;;;3.38;1.52;;;;;;;19.44;100.00;101521.16;5033866;28;20389;-74
2022/06/26 09:31:40;;;;;;;8.98;1.92;;;;;;;19.28;100.00;101516.88;5031668;28;20025;-73
2022/06/26 09:34:07;;;;;;;6.65;1.83;;;;;;;19.49;100.00;101522.00;5033469;28;20492;-76
2022/06/26 09:36:33;;;;;;;5.93;1.40;;;;;;;19.59;100.00;101521.88;5033095;28;20022;-74
2022/06/26 09:38:59;;;;;;;3.10;1.77;;;;;;;19.70;100.00;101518.22;5034576;28;20028;-75
2022/06/26 09:41:32;;;;;;;5.15;1.40;;;;;;;19.84;100.00;101523.44;5033927;28;20041;-76
2022/06/26 09:43:58;;;;;;;3.10;1.30;;;;;;;19.85;98.56;101517.19;5033700;28;20068;-75
2022/06/26 09:46:32;;;;;;;4.35;1.42;;;;;;;19.96;100.00;101521.53;5034273;28;20022;-75
2022/06/26 09:48:59;;;;;;;5.25;1.30;;;;;;;20.15;99.15;101520.41;5035330;28;20021;-76
2022/06/26 09:51:25;;;;;;;3.70;1.50;;;;;;;20.18;95.73;101517.72;5033266;28;20544;-76
2022/06/26 09:53:52;;;;;;;3.75;1.60;;;;;;;20.16;99.50;101532.88;5031253;28;20041;-76
2022/06/26 09:56:18;;;;;;;8.23;1.42;;;;;;;20.34;96.91;101531.75;5029180;28;20040;-76
2022/06/26 09:58:44;;;;;;;2.95;1.55;;;;;;;20.25;96.00;101528.31;5032969;28;20025;-77
2022/06/26 10:06:43;;;;;;;4.32;1.40;;;;;;;20.64;98.16;101542.91;5034616;28;20048;-76
2022/06/26 10:09:10;;;;;;;2.75;1.90;;;;;;;20.72;93.14;101534.84;5020242;28;20030;-76
2022/06/26 10:11:38;;;;;;;4.75;1.60;;;;;;;20.64;92.40;101529.56;5032849;28;20033;-78
2022/06/26 10:14:18;;;;;;;4.22;1.50;;;;;;;20.85;95.16;101536.41;5033683;28;20045;-76
2022/06/26 10:17:05;;;;;;;4.90;1.50;;;;;;;20.75;92.74;101529.44;5033107;28;20425;-74
2022/06/26 10:19:55;;;;;;;6.85;1.63;;;;;;;20.81;97.12;101536.47;5025761;28;20128;-74
2022/06/26 10:22:20;;;;;;;4.97;1.33;;;;;;;20.85;96.50;101531.06;5030912;28;20771;-74
2022/06/26 10:24:58;;;;;;;4.68;1.55;;;;;;;20.85;93.69;101539.09;5032930;28;20095;-75
2022/06/26 10:27:33;;;;;;;2.53;1.52;;;;;;;20.81;97.90;101537.38;5034010;28;20040;-74
2022/06/26 10:30:19;;;;;;;4.20;1.50;;;;;;;20.28;94.79;101538.94;5034537;28;20037;-76
2022/06/26 10:32:45;;;;;;;4.55;1.50;;;;;;;20.14;97.53;101534.66;5034228;28;20423;-75
2022/06/26 10:35:13;;;;;;;7.03;1.60;;;;;;;20.35;99.19;101540.66;5032519;28;20033;-75
2022/06/26 10:37:46;;;;;;;3.33;1.40;;;;;;;20.42;97.93;101544.16;5032627;28;20075;-77
2022/06/26 10:42:52;;;;;;;;;;;;;;;20.13;93.53;101540.94;5031159;28;20021;-77
2022/06/26 10:43:01;;;;;;;6.97;1.67;;;;;;;20.04;98.55;101552.59;5031031;28;20327;-76
2022/06/26 10:45:31;;;;;;;2.05;1.23;;;;;;;20.16;95.47;101542.69;5031570;28;20033;-76
2022/06/26 10:48:02;;;;;;;3.40;1.45;;;;;;;20.02;97.25;101554.41;5029276;28;20030;-76
2022/06/26 10:50:32;;;;;;;5.88;1.55;;;;;;;20.01;96.95;101543.75;5025237;28;20029;-76
2022/06/26 10:53:21;;;;;;;6.07;1.75;;;;;;;20.04;99.31;101552.59;5025702;28;20041;-74
2022/06/26 10:55:59;;;;;;;3.92;1.60;;;;;;;20.03;99.06;101547.28;5031914;28;20084;-78
2022/06/26 10:58:31;;;;;;;4.10;1.70;;;;;;;20.20;99.94;101542.63;5024644;28;20103;-77
2022/06/26 11:00:58;;;;;;;4.43;1.50;;;;;;;20.31;98.84;101538.94;5028681;28;20033;-78
2022/06/26 11:03:25;;;;;;;3.45;1.48;;;;;;;20.36;95.74;101547.75;5032025;28;20045;-75
2022/06/26 11:05:52;;;;;;;7.43;1.85;;;;;;;20.33;95.25;101545.13;5030444;28;20474;-75
2022/06/26 11:08:24;;;;;;;4.53;1.75;;;;;;;20.28;96.78;101552.31;5032950;28;20087;-77
2022/06/26 11:10:49;;;;;;;5.30;1.83;;;;;;;20.37;97.46;101549.53;5022749;28;20060;-75
2022/06/26 11:13:15;;;;;;;5.70;1.77;;;;;;;20.44;98.43;101555.69;5032137;28;20029;-74
2022/06/26 11:15:42;;;;;;;8.70;2.13;;;;;;;20.15;96.22;101543.59;5033485;28;20038;-75